Soro Syd, Denmark
Current Conditions -  °F | °C
As of 4:50 PM on Tuesday 21 Oct 2014 (Local Time) from EKRK Reporting Station
Broken Clouds Broken Clouds  
Wind Chill: 54°   Ceiling: 6000
Heat Index: 54°   Visibility: 6mi
Dew Point: 52°   Wind: 12mph
Humidity: 94%   Direction: 160°SSE
Pressure: 29.44"   Gusts: NA
Location:  55.43°N, 11.57°E
Report Text: EKRK 211450Z AUTO 16010KT 9999NDV FEW008/// BKN060///BKN075/// 12/11 Q0997
Loading
Personal Weather Stations






























Interactive Weather Map
Tropical Storm Tracking
New forecast layout! Learn more

10-Day Weather Forecast

Advertisements
Track Severe Weather on mobile